createdAt,value
2023-04-15T00:00:29.192Z,69.0677
2023-04-15T00:01:37.275Z,67.6535
2023-04-15T00:02:45.276Z,67.0684
2023-04-15T00:03:53.484Z,66.7043
2023-04-15T00:05:01.383Z,66.5968
2023-04-15T00:06:09.459Z,66.7365
2023-04-15T00:07:17.515Z,66.9434
2023-04-15T00:08:25.696Z,65.8759
2023-04-15T00:09:33.657Z,64.9252
2023-04-15T00:10:41.611Z,65.1464
2023-04-15T00:11:49.815Z,64.8028
2023-04-15T00:12:57.952Z,66.8123
2023-04-15T00:14:05.807Z,65.5070
2023-04-15T00:15:14.003Z,65.5115
2023-04-15T00:16:22.110Z,66.5262
2023-04-15T00:17:30.122Z,68.1158
2023-04-15T00:18:38.173Z,68.7879
2023-04-15T00:19:46.277Z,69.2112
2023-04-15T00:20:54.352Z,68.0557
2023-04-15T00:22:02.468Z,68.2087
2023-04-15T00:23:10.396Z,69.9346
2023-04-15T00:24:18.665Z,71.2054
2023-04-15T00:25:26.627Z,71.5898
2023-04-15T00:26:34.598Z,72.8386
2023-04-15T00:27:42.760Z,73.1236
2023-04-15T00:28:50.792Z,73.3920
2023-04-15T00:29:58.840Z,73.6331
2023-04-15T00:31:06.960Z,73.6244
2023-04-15T00:32:14.994Z,74.2137
2023-04-15T00:33:23.008Z,74.6055
2023-04-15T00:34:30.995Z,73.7611
2023-04-15T00:35:39.324Z,73.5569
2023-04-15T00:36:47.257Z,74.2075
2023-04-15T00:37:55.298Z,74.3707
2023-04-15T00:39:03.409Z,75.2382
2023-04-15T00:40:11.423Z,75.0117
2023-04-15T00:41:19.497Z,74.8730
2023-04-15T00:42:27.472Z,74.0906
2023-04-15T00:43:35.713Z,73.2072
2023-04-15T00:44:43.688Z,73.1551
2023-04-15T00:45:51.858Z,74.0676
2023-04-15T00:46:59.902Z,74.6341
2023-04-15T00:48:07.922Z,75.7093
2023-04-15T00:49:16.094Z,75.7222
2023-04-15T00:50:24.027Z,75.7752
2023-04-15T00:51:32.264Z,75.4139
2023-04-15T00:52:40.190Z,75.3459
2023-04-15T00:53:48.237Z,74.9711
2023-04-15T00:54:56.344Z,74.2661
2023-04-15T00:56:04.393Z,73.1853
2023-04-15T00:57:12.426Z,73.5454
2023-04-15T00:58:20.495Z,73.2373
2023-04-15T00:59:28.676Z,73.2095
2023-04-15T01:00:36.651Z,74.0972
2023-04-15T01:01:44.893Z,73.8765
2023-04-15T01:02:53.041Z,73.4412
2023-04-15T01:04:00.846Z,73.2772
2023-04-15T01:05:08.893Z,73.1796
2023-04-15T01:06:16.994Z,74.3795
2023-04-15T01:07:25.050Z,73.9972
2023-04-15T01:08:33.065Z,73.7777
2023-04-15T01:09:41.172Z,73.7704
2023-04-15T01:10:49.350Z,70.6532
2023-04-15T01:11:57.277Z,69.2449
2023-04-15T01:13:05.353Z,68.5544
2023-04-15T01:14:13.567Z,69.5817
2023-04-15T01:15:21.501Z,70.3590
2023-04-15T01:16:29.721Z,70.1307
2023-04-15T01:17:37.795Z,70.3894
2023-04-15T01:18:45.794Z,71.7176
2023-04-15T01:19:53.831Z,71.9962
2023-04-15T01:21:01.875Z,73.4283
2023-04-15T01:22:09.953Z,74.8591
2023-04-15T01:23:18.138Z,73.6953
2023-04-15T01:24:26.059Z,73.4485
2023-04-15T01:25:34.071Z,74.6058
2023-04-15T01:26:43.505Z,74.1409
2023-04-15T01:27:50.291Z,72.9969
2023-04-15T01:28:58.458Z,73.2974
2023-04-15T01:30:06.433Z,73.9401
2023-04-15T01:31:14.483Z,73.4380
2023-04-15T01:32:22.563Z,72.7094
2023-04-15T01:33:30.597Z,72.2409
2023-04-15T01:34:38.561Z,72.9038
2023-04-15T01:35:46.732Z,72.8024
2023-04-15T01:36:54.767Z,72.7174
2023-04-15T01:38:02.984Z,72.5685
2023-04-15T01:39:10.895Z,72.2470
2023-04-15T01:40:18.994Z,72.3525
2023-04-15T01:41:27.068Z,73.0927
2023-04-15T01:42:35.253Z,73.0989
2023-04-15T01:43:43.168Z,72.4380
2023-04-15T01:44:51.234Z,72.4393
2023-04-15T01:45:59.233Z,73.2056
2023-04-15T01:47:07.358Z,73.9588
2023-04-15T01:48:15.470Z,74.6309
2023-04-15T01:49:23.563Z,73.7171
2023-04-15T01:50:31.559Z,72.9565
2023-04-15T01:51:39.791Z,73.1506
2023-04-15T01:52:47.692Z,73.0965
2023-04-15T01:53:55.710Z,74.3828
2023-04-15T01:55:03.850Z,73.8989
2023-04-15T01:56:11.874Z,72.7854
2023-04-15T01:57:20.053Z,72.9330
2023-04-15T01:58:28.030Z,72.3057
2023-04-15T01:59:36.246Z,72.5659
2023-04-15T02:00:44.219Z,73.6003
2023-04-15T02:01:52.283Z,73.4438
2023-04-15T02:03:00.423Z,73.7098
2023-04-15T02:04:08.449Z,73.9120
2023-04-15T02:05:16.395Z,74.0851
2023-04-15T02:06:24.492Z,73.7861
2023-04-15T02:07:32.567Z,72.6642
2023-04-15T02:08:40.814Z,73.5838
2023-04-15T02:09:48.693Z,74.3908
2023-04-15T02:10:56.782Z,74.6742
2023-04-15T02:12:04.829Z,74.4176
2023-04-15T02:13:13.010Z,74.2027
2023-04-15T02:14:20.977Z,74.3282
2023-04-15T02:15:29.103Z,74.3500
2023-04-15T02:16:37.058Z,75.1701
2023-04-15T02:17:45.197Z,74.9408
2023-04-15T02:18:53.388Z,73.9562
2023-04-15T02:20:01.310Z,74.2797
2023-04-15T02:21:09.525Z,74.8392
2023-04-15T02:22:17.373Z,75.1020
2023-04-15T02:23:25.562Z,73.7067
2023-04-15T02:24:33.649Z,71.0218
2023-04-15T02:25:41.714Z,69.7461
2023-04-15T02:26:49.716Z,69.4048
2023-04-15T02:27:57.797Z,69.0528
2023-04-15T02:29:06.039Z,68.4587
2023-04-15T02:30:14.014Z,68.7974
2023-04-15T02:31:22.095Z,68.4072
2023-04-15T02:32:30.140Z,68.6136
2023-04-15T02:33:38.304Z,67.9314
2023-04-15T02:34:46.272Z,68.7369
2023-04-15T02:35:54.371Z,68.6160
2023-04-15T02:37:02.607Z,68.6994
2023-04-15T02:38:10.464Z,69.5423
2023-04-15T02:39:18.562Z,69.5637
2023-04-15T02:40:26.607Z,69.6117
2023-04-15T02:41:34.800Z,69.1579
2023-04-15T02:42:42.803Z,68.7706
2023-04-15T02:43:50.798Z,69.0557
2023-04-15T02:44:58.944Z,69.1643
2023-04-15T02:46:07.003Z,68.7751
2023-04-15T02:47:15.002Z,68.9576
2023-04-15T02:48:22.987Z,69.0614
2023-04-15T02:49:31.126Z,68.8312
2023-04-15T02:50:39.821Z,68.7217
2023-04-15T02:51:47.285Z,68.6088
2023-04-15T02:52:55.393Z,68.5494
2023-04-15T02:54:03.383Z,67.9461
2023-04-15T02:55:11.439Z,68.3903
2023-04-15T02:56:19.646Z,68.7137
2023-04-15T02:57:27.691Z,68.1139
2023-04-15T02:58:35.641Z,68.2424
2023-04-15T02:59:43.709Z,68.0317
2023-04-15T03:00:51.908Z,67.9381
2023-04-15T03:01:59.914Z,67.9301
2023-04-15T03:03:08.075Z,67.7933
2023-04-15T03:04:16.232Z,67.6519
2023-04-15T03:05:24.038Z,67.2887
2023-04-15T03:06:32.186Z,67.2209
2023-04-15T03:07:40.213Z,67.6610
2023-04-15T03:08:48.380Z,68.1819
2023-04-15T03:09:56.311Z,67.7177
2023-04-15T03:11:04.370Z,67.6789
2023-04-15T03:12:12.597Z,67.4776
2023-04-15T03:13:20.613Z,67.9570
2023-04-15T03:14:28.597Z,67.8883
2023-04-15T03:15:36.685Z,68.1344
2023-04-15T03:16:44.754Z,68.4085
2023-04-15T03:17:52.756Z,68.0595
2023-04-15T03:19:01.193Z,67.7546
2023-04-15T03:20:09.089Z,68.1434
2023-04-15T03:21:16.981Z,68.0581
2023-04-15T03:22:24.957Z,67.6195
2023-04-15T03:23:33.236Z,67.3441
2023-04-15T03:24:41.323Z,67.5088
2023-04-15T03:25:49.263Z,67.5977
2023-04-15T03:26:57.295Z,67.8268
2023-04-15T03:28:05.457Z,68.0475
2023-04-15T03:29:13.393Z,67.8685
2023-04-15T03:30:21.552Z,67.5488
2023-04-15T03:31:29.675Z,68.2168
2023-04-15T03:32:37.659Z,68.0130
2023-04-15T03:33:45.859Z,67.5634
2023-04-15T03:34:53.710Z,67.3497
2023-04-15T03:36:01.855Z,67.5474
2023-04-15T03:37:09.901Z,67.4975
2023-04-15T03:38:17.997Z,67.2077
2023-04-15T03:39:25.997Z,66.7726
2023-04-15T03:40:34.098Z,67.5772
2023-04-15T03:41:42.128Z,67.3494
2023-04-15T03:42:50.401Z,67.9706
2023-04-15T03:43:58.272Z,67.2435
2023-04-15T03:45:06.345Z,67.5950
2023-04-15T03:46:14.365Z,68.1954
2023-04-15T03:47:22.514Z,67.7926
2023-04-15T03:48:30.531Z,67.9787
2023-04-15T03:49:38.609Z,68.0137
2023-04-15T03:50:46.595Z,67.5546
2023-04-15T03:51:54.721Z,68.0873
2023-04-15T03:53:02.931Z,67.6837
2023-04-15T03:54:10.788Z,67.1599
2023-04-15T03:55:18.943Z,67.4334
2023-04-15T03:56:26.923Z,67.4245
2023-04-15T03:57:35.070Z,68.5518
2023-04-15T03:58:43.119Z,69.1371
2023-04-15T03:59:51.152Z,68.4514
2023-04-15T04:00:59.231Z,68.9599
2023-04-15T04:02:07.647Z,68.3595
2023-04-15T04:03:15.559Z,68.0240
2023-04-15T04:04:23.534Z,68.2867
2023-04-15T04:05:31.472Z,68.3646
2023-04-15T04:06:39.590Z,68.3217
2023-04-15T04:07:47.552Z,68.1624
2023-04-15T04:08:55.743Z,68.4083
2023-04-15T04:10:03.862Z,68.0128
2023-04-15T04:11:11.867Z,67.7495
2023-04-15T04:12:19.904Z,67.7651
2023-04-15T04:13:28.157Z,68.4051
2023-04-15T04:14:36.041Z,68.0979
2023-04-15T04:15:44.159Z,67.7060
2023-04-15T04:16:52.188Z,68.3001
2023-04-15T04:18:00.403Z,69.3918
2023-04-15T04:19:08.312Z,69.0903
2023-04-15T04:20:16.426Z,69.8041
2023-04-15T04:21:24.666Z,69.1220
2023-04-15T04:22:32.521Z,68.2222
2023-04-15T04:23:40.592Z,67.9569
2023-04-15T04:24:48.670Z,67.8151
2023-04-15T04:25:56.863Z,68.1428
2023-04-15T04:27:04.858Z,67.6932
2023-04-15T04:28:12.887Z,67.5964
2023-04-15T04:29:21.030Z,67.9712
2023-04-15T04:30:29.023Z,68.7872
2023-04-15T04:31:37.150Z,68.8924
2023-04-15T04:32:45.244Z,68.9727
2023-04-15T04:33:53.324Z,68.9747
2023-04-15T04:35:01.280Z,69.6250
2023-04-15T04:36:09.360Z,68.3945
2023-04-15T04:37:17.511Z,68.4819
2023-04-15T04:38:25.594Z,68.5459
2023-04-15T04:39:33.576Z,68.4468
2023-04-15T04:40:41.620Z,67.9987
2023-04-15T04:41:49.731Z,68.0560
2023-04-15T04:42:57.750Z,67.8835
2023-04-15T04:44:05.842Z,67.7243
2023-04-15T04:45:13.944Z,67.7466
2023-04-15T04:46:21.879Z,67.8151
2023-04-15T04:47:30.045Z,67.4634
2023-04-15T04:48:38.079Z,67.4248
2023-04-15T04:49:46.265Z,67.2174
2023-04-15T04:50:54.218Z,67.7421
2023-04-15T04:52:02.322Z,67.2296
2023-04-15T04:53:10.421Z,66.5455
2023-04-15T04:54:18.341Z,66.9100
2023-04-15T04:55:26.472Z,67.3966
2023-04-15T04:56:34.670Z,67.5173
2023-04-15T04:57:42.623Z,67.5113
2023-04-15T04:58:50.821Z,67.9702
2023-04-15T04:59:58.756Z,68.7538
2023-04-15T05:01:06.853Z,68.0390
2023-04-15T05:02:14.893Z,68.0937
2023-04-15T05:03:23.068Z,66.7720
2023-04-15T05:04:31.052Z,67.0635
2023-04-15T05:05:39.050Z,67.0335
2023-04-15T05:06:47.131Z,66.5380
2023-04-15T05:07:55.382Z,66.1362
2023-04-15T05:09:03.474Z,66.0906
2023-04-15T05:10:11.399Z,65.9487
2023-04-15T05:11:19.335Z,66.1383
2023-04-15T05:12:27.635Z,66.7726
2023-04-15T05:13:35.555Z,66.5371
2023-04-15T05:14:43.604Z,66.4608
2023-04-15T05:15:51.887Z,66.3441
2023-04-15T05:16:59.758Z,66.3195
2023-04-15T05:18:07.889Z,66.3805
2023-04-15T05:19:15.866Z,66.7260
2023-04-15T05:20:24.025Z,66.4606
2023-04-15T05:21:31.991Z,66.5599
2023-04-15T05:22:40.131Z,66.8002
2023-04-15T05:23:48.049Z,66.6626
2023-04-15T05:24:56.202Z,66.9194
2023-04-15T05:26:04.256Z,66.9153
2023-04-15T05:27:12.376Z,67.0117
2023-04-15T05:28:20.360Z,66.8923
2023-04-15T05:29:28.386Z,66.6900
2023-04-15T05:30:36.557Z,66.8454
2023-04-15T05:31:44.699Z,67.5296
2023-04-15T05:32:52.734Z,66.7401
2023-04-15T05:34:00.753Z,66.5074
2023-04-15T05:35:08.936Z,66.6839
2023-04-15T05:36:16.861Z,66.7685
2023-04-15T05:37:24.975Z,65.9448
2023-04-15T05:38:33.078Z,66.2885
2023-04-15T05:39:41.127Z,65.7819
2023-04-15T05:40:49.206Z,66.0441
2023-04-15T05:41:57.193Z,65.8550
2023-04-15T05:43:05.486Z,66.0480
2023-04-15T05:44:13.324Z,66.0370
2023-04-15T05:45:21.312Z,66.0679
2023-04-15T05:46:29.484Z,65.8270
2023-04-15T05:47:37.776Z,65.4342
2023-04-15T05:48:45.589Z,65.3472
2023-04-15T05:49:53.717Z,65.4236
2023-04-15T05:51:01.779Z,65.5885
2023-04-15T05:52:09.810Z,65.4842
2023-04-15T05:53:17.901Z,65.4953
2023-04-15T05:54:25.931Z,66.7413
2023-04-15T05:55:34.016Z,65.4532
2023-04-15T05:56:42.091Z,65.3289
2023-04-15T05:57:50.088Z,65.5595
2023-04-15T05:58:58.304Z,66.1093
2023-04-15T06:00:06.214Z,65.5003
2023-04-15T06:01:14.377Z,65.1175
2023-04-15T06:02:22.532Z,65.2125
2023-04-15T06:03:30.647Z,65.3254
2023-04-15T06:04:38.731Z,66.2843
2023-04-15T06:05:46.568Z,65.4729
2023-04-15T06:06:54.850Z,65.2315
2023-04-15T06:08:02.869Z,65.9421
2023-04-15T06:09:10.854Z,66.3938
2023-04-15T06:10:18.895Z,65.8489
2023-04-15T06:11:26.864Z,65.7207
2023-04-15T06:12:35.027Z,65.0140
2023-04-15T06:13:43.063Z,64.8132
2023-04-15T06:14:51.164Z,64.2740
2023-04-15T06:15:59.307Z,64.1314
2023-04-15T06:17:07.187Z,64.7422
2023-04-15T06:18:15.543Z,65.0332
2023-04-15T06:19:23.465Z,64.8092
2023-04-15T06:20:31.623Z,65.0600
2023-04-15T06:21:39.592Z,65.6324
2023-04-15T06:22:47.517Z,64.3903
2023-04-15T06:23:55.798Z,65.2093
2023-04-15T06:25:03.734Z,65.1817
2023-04-15T06:26:11.850Z,65.5362
2023-04-15T06:27:19.868Z,64.7474
2023-04-15T06:28:27.895Z,64.8903
2023-04-15T06:29:36.190Z,65.2644
2023-04-15T06:30:44.029Z,63.9117
2023-04-15T06:31:52.174Z,63.7758
2023-04-15T06:33:00.357Z,64.3802
2023-04-15T06:34:08.266Z,64.3506
2023-04-15T06:35:16.422Z,65.2305
2023-04-15T06:36:24.360Z,66.1446
2023-04-15T06:37:32.437Z,65.0775
2023-04-15T06:38:40.563Z,62.3429
2023-04-15T06:39:48.634Z,61.6172
2023-04-15T06:40:56.705Z,62.6645
2023-04-15T06:42:04.753Z,62.5141
2023-04-15T06:43:12.764Z,62.2983
2023-04-15T06:44:20.876Z,62.1206
2023-04-15T06:45:29.007Z,61.5694
2023-04-15T06:46:36.979Z,62.1633
2023-04-15T06:47:45.214Z,60.9279
2023-04-15T06:48:53.054Z,59.2559
2023-04-15T06:50:01.161Z,59.8553
2023-04-15T06:51:09.256Z,60.8521
2023-04-15T06:52:17.245Z,61.1089
2023-04-15T06:53:25.390Z,60.5823
2023-04-15T06:54:33.437Z,60.1287
2023-04-15T06:55:41.474Z,60.6837
2023-04-15T06:56:49.624Z,60.9544
2023-04-15T06:57:57.737Z,60.3467
2023-04-15T06:59:05.754Z,60.3019
2023-04-15T07:00:13.710Z,60.4651
2023-04-15T07:01:21.889Z,60.6570
2023-04-15T07:02:29.984Z,60.7742
2023-04-15T07:03:38.059Z,60.5902
2023-04-15T07:04:46.069Z,61.0436
2023-04-15T07:05:54.126Z,62.2516
2023-04-15T07:07:02.224Z,60.7576
2023-04-15T07:08:10.378Z,60.1498
2023-04-15T07:09:18.263Z,60.5323
2023-04-15T07:10:26.485Z,60.0093
2023-04-15T07:11:34.418Z,59.7009
2023-04-15T07:12:42.486Z,59.5346
2023-04-15T07:13:50.655Z,59.2135
2023-04-15T07:14:58.524Z,59.8825
2023-04-15T07:16:06.642Z,61.1398
2023-04-15T07:17:14.778Z,62.0075
2023-04-15T07:18:22.855Z,61.0705
2023-04-15T07:19:30.949Z,60.2362
2023-04-15T07:20:38.955Z,60.4337
2023-04-15T07:21:46.999Z,60.6722
2023-04-15T07:22:55.059Z,61.6675
2023-04-15T07:24:03.115Z,61.8075
2023-04-15T07:25:11.149Z,61.3008
2023-04-15T07:26:19.150Z,62.1156
2023-04-15T07:27:27.209Z,64.1962
2023-04-15T07:28:35.459Z,65.2011
2023-04-15T07:29:43.486Z,64.3267
2023-04-15T07:30:51.499Z,64.0749
2023-04-15T07:31:59.479Z,65.7619
2023-04-15T07:33:07.693Z,65.0566
2023-04-15T07:34:15.803Z,64.1462
2023-04-15T07:35:23.769Z,64.5032
2023-04-15T07:36:31.941Z,64.0173
2023-04-15T07:37:39.876Z,65.5459
2023-04-15T07:38:47.860Z,66.5677
2023-04-15T07:39:55.999Z,65.7307
2023-04-15T07:41:04.120Z,64.7070
2023-04-15T07:42:12.217Z,65.4030
2023-04-15T07:43:20.228Z,64.8972
2023-04-15T07:44:28.457Z,64.9276
2023-04-15T07:45:36.648Z,65.8830
2023-04-15T07:46:44.390Z,67.0883
2023-04-15T07:47:52.481Z,67.9871
2023-04-15T07:49:01.018Z,68.5844
2023-04-15T07:50:08.574Z,68.3695
2023-04-15T07:51:16.617Z,68.7385
2023-04-15T07:52:24.583Z,69.0606
2023-04-15T07:53:32.893Z,68.2225
2023-04-15T07:54:40.929Z,67.6634
2023-04-15T07:55:48.850Z,67.8310
2023-04-15T07:56:57.018Z,69.3552
2023-04-15T07:58:05.024Z,69.9652
2023-04-15T07:59:13.106Z,68.0543
2023-04-15T08:00:21.137Z,68.1125
2023-04-15T08:01:29.186Z,67.6362
2023-04-15T08:02:38.982Z,68.2999
2023-04-15T08:03:50.272Z,67.6297
2023-04-15T08:04:58.446Z,66.6541
2023-04-15T08:06:06.296Z,67.8286
2023-04-15T08:07:14.346Z,69.0291
2023-04-15T08:08:22.442Z,68.9652
2023-04-15T08:09:30.623Z,68.7353
2023-04-15T08:10:38.484Z,69.0930
2023-04-15T08:11:46.615Z,68.6901
2023-04-15T08:12:54.789Z,69.1839
2023-04-15T08:14:02.889Z,68.4009
2023-04-15T08:15:10.845Z,69.5202
2023-04-15T08:16:18.975Z,69.1562
2023-04-15T08:17:27.000Z,67.6605
2023-04-15T08:18:34.983Z,66.4323
2023-04-15T08:19:43.136Z,66.7192
2023-04-15T08:20:51.265Z,66.7884
2023-04-15T08:21:59.206Z,66.3103
2023-04-15T08:23:07.261Z,65.4542
2023-04-15T08:24:15.288Z,65.5822
2023-04-15T08:25:23.396Z,63.8441
2023-04-15T08:26:31.441Z,62.7067
2023-04-15T08:27:39.516Z,64.7527
2023-04-15T08:28:47.588Z,63.7690
2023-04-15T08:29:55.754Z,63.4969
2023-04-15T08:31:03.644Z,63.3797
2023-04-15T08:32:11.984Z,63.8446
2023-04-15T08:33:19.827Z,62.9850
2023-04-15T08:34:27.913Z,63.1566
2023-04-15T08:35:35.946Z,63.8946
2023-04-15T08:36:44.062Z,65.0508
2023-04-15T08:37:52.127Z,64.9899
2023-04-15T08:39:00.355Z,64.4214
2023-04-15T08:40:08.350Z,62.5847
2023-04-15T08:41:16.376Z,63.8239
2023-04-15T08:42:24.371Z,63.2550
2023-04-15T08:43:32.510Z,62.6205
2023-04-15T08:44:40.522Z,60.2107
2023-04-15T08:45:48.632Z,59.3149
2023-04-15T08:46:56.821Z,61.6347
2023-04-15T08:48:04.774Z,61.8789
2023-04-15T08:49:12.897Z,60.5366
2023-04-15T08:50:20.735Z,61.1926
2023-04-15T08:51:29.078Z,62.1620
2023-04-15T08:52:36.970Z,63.6917
2023-04-15T08:53:45.154Z,63.1367
2023-04-15T08:54:53.138Z,62.3363
2023-04-15T08:56:01.079Z,62.6772
2023-04-15T08:57:09.179Z,61.1039
2023-04-15T08:58:17.287Z,60.1155
2023-04-15T08:59:25.357Z,59.9549
2023-04-15T09:00:33.439Z,59.7228
2023-04-15T09:01:41.427Z,60.0569
2023-04-15T09:02:49.855Z,62.0199
2023-04-15T09:03:57.692Z,62.6860
2023-04-15T09:05:05.650Z,63.1135
2023-04-15T09:06:13.778Z,65.7422
2023-04-15T09:07:21.777Z,65.4046
2023-04-15T09:08:29.862Z,64.7414
2023-04-15T09:09:38.083Z,63.9732
2023-04-15T09:10:45.946Z,65.0236
2023-04-15T09:11:54.095Z,66.4431
2023-04-15T09:13:02.128Z,65.4660
2023-04-15T09:14:10.157Z,63.6283
2023-04-15T09:15:18.206Z,63.1504
2023-04-15T09:16:26.343Z,62.0803
2023-04-15T09:17:34.591Z,63.9846
2023-04-15T09:18:42.415Z,64.2346
2023-04-15T09:19:50.455Z,66.7096
2023-04-15T09:20:58.631Z,66.3472
2023-04-15T09:22:06.712Z,66.7927
2023-04-15T09:23:14.640Z,66.9069
2023-04-15T09:24:22.802Z,65.3694
2023-04-15T09:25:32.815Z,65.9834
2023-04-15T09:26:43.816Z,65.4297
2023-04-15T09:27:51.690Z,65.4631
2023-04-15T09:28:59.909Z,65.0699
2023-04-15T09:30:07.870Z,65.1758
2023-04-15T09:31:16.009Z,64.7505
2023-04-15T09:32:24.114Z,65.4125
2023-04-15T09:33:32.119Z,64.9869
2023-04-15T09:34:40.054Z,63.4328
2023-04-15T09:35:48.215Z,62.9642
2023-04-15T09:36:56.384Z,63.0278
2023-04-15T09:38:04.329Z,64.0618
2023-04-15T09:39:12.475Z,61.1995
2023-04-15T09:40:20.383Z,60.7637
2023-04-15T09:41:28.569Z,60.8762
2023-04-15T09:42:36.716Z,61.9358
2023-04-15T09:43:44.813Z,59.7233
2023-04-15T09:44:52.705Z,59.6504
2023-04-15T09:46:00.793Z,59.4181
2023-04-15T09:47:08.904Z,63.2729
2023-04-15T09:48:16.821Z,60.2579
2023-04-15T09:49:25.077Z,58.9586
2023-04-15T09:50:32.994Z,58.4547
2023-04-15T09:51:42.185Z,58.7431
2023-04-15T09:52:49.150Z,60.3033
2023-04-15T09:53:57.131Z,58.9005
2023-04-15T09:55:05.191Z,60.2035
2023-04-15T09:56:13.339Z,59.6235
2023-04-15T09:57:21.407Z,59.0765
2023-04-15T09:58:29.595Z,63.8066
2023-04-15T09:59:37.417Z,59.3338
2023-04-15T10:00:45.487Z,60.2167
2023-04-15T10:01:53.661Z,60.4280
2023-04-15T10:03:01.745Z,60.9536
2023-04-15T10:04:09.868Z,62.7842
2023-04-15T10:05:17.733Z,58.8132
2023-04-15T10:06:25.784Z,58.2673
2023-04-15T10:07:33.971Z,57.7207
2023-04-15T10:08:42.011Z,61.1905
2023-04-15T10:09:50.207Z,61.6418
2023-04-15T10:10:58.126Z,60.7834
2023-04-15T10:12:06.109Z,62.1553
2023-04-15T10:13:14.408Z,63.6011
2023-04-15T10:14:22.339Z,62.2783
2023-04-15T10:15:30.281Z,61.9291
2023-04-15T10:16:38.416Z,58.8378
2023-04-15T10:17:46.535Z,60.3323
2023-04-15T10:18:54.579Z,60.7676
2023-04-15T10:20:02.526Z,60.1408
2023-04-15T10:21:10.888Z,61.0815
2023-04-15T10:22:18.737Z,62.6883
2023-04-15T10:23:26.791Z,61.0004
2023-04-15T10:24:34.943Z,61.4265
2023-04-15T10:25:42.858Z,62.1768
2023-04-15T10:26:50.882Z,61.8009
2023-04-15T10:27:59.088Z,61.8637
2023-04-15T10:29:07.193Z,63.5003
2023-04-15T10:30:15.230Z,64.6949
2023-04-15T10:31:23.323Z,63.4337
2023-04-15T10:32:31.340Z,63.9316
2023-04-15T10:33:39.359Z,63.4590
2023-04-15T10:34:47.410Z,61.0894
2023-04-15T10:35:55.590Z,61.7938
2023-04-15T10:37:03.760Z,59.7414
2023-04-15T10:38:11.616Z,60.3917
2023-04-15T10:39:19.721Z,59.9335
2023-04-15T10:40:27.720Z,60.9592
2023-04-15T10:41:35.832Z,61.4588
2023-04-15T10:42:43.856Z,61.4861
2023-04-15T10:43:51.982Z,61.7077
2023-04-15T10:44:59.999Z,62.6261
2023-04-15T10:46:08.107Z,62.3937
2023-04-15T10:47:16.151Z,63.7685
2023-04-15T10:48:24.409Z,61.2264
2023-04-15T10:49:32.342Z,62.4902
2023-04-15T10:50:40.376Z,65.6816
2023-04-15T10:51:48.376Z,65.1637
2023-04-15T10:52:56.497Z,66.1533
2023-04-15T10:54:04.724Z,65.5122
2023-04-15T10:55:12.706Z,67.1717
2023-04-15T10:56:20.656Z,64.7307
2023-04-15T10:57:28.765Z,65.2292
2023-04-15T10:58:36.848Z,67.2816
2023-04-15T10:59:44.898Z,67.4087
2023-04-15T11:00:52.985Z,67.6972
2023-04-15T11:02:01.081Z,67.6100
2023-04-15T11:03:09.472Z,68.1891
2023-04-15T11:04:17.151Z,66.9655
2023-04-15T11:05:25.164Z,66.8744
2023-04-15T11:06:33.446Z,67.3133
2023-04-15T11:07:41.300Z,65.1205
2023-04-15T11:08:49.418Z,65.3355
2023-04-15T11:09:57.507Z,62.9518
2023-04-15T11:11:05.492Z,64.0674
2023-04-15T11:12:13.663Z,65.0023
2023-04-15T11:13:21.613Z,63.9224
2023-04-15T11:14:29.826Z,64.2576
2023-04-15T11:15:37.709Z,62.7353
2023-04-15T11:16:45.869Z,62.1669
2023-04-15T11:17:54.115Z,64.0696
2023-04-15T11:19:01.961Z,63.3094
2023-04-15T11:20:10.011Z,64.8649
2023-04-15T11:21:18.207Z,65.7241
2023-04-15T11:22:26.100Z,66.5884
2023-04-15T11:23:34.310Z,67.9680
2023-04-15T11:24:42.285Z,70.1524
2023-04-15T11:25:50.312Z,68.4302
2023-04-15T11:26:58.352Z,68.4371
2023-04-15T11:28:06.393Z,68.7631
2023-04-15T11:29:14.555Z,68.9558
2023-04-15T11:30:22.536Z,70.3014
2023-04-15T11:31:30.608Z,69.4910
2023-04-15T11:32:38.777Z,68.0369
2023-04-15T11:33:46.711Z,68.2609
2023-04-15T11:34:54.768Z,70.2426
2023-04-15T11:36:02.919Z,71.1709
2023-04-15T11:37:10.891Z,69.3064
2023-04-15T11:38:18.947Z,67.6885
2023-04-15T11:39:27.095Z,68.5241
2023-04-15T11:40:35.162Z,69.5398
2023-04-15T11:41:43.035Z,68.5710
2023-04-15T11:42:51.254Z,68.1885
2023-04-15T11:43:59.219Z,69.1412
2023-04-15T11:45:07.303Z,67.9056
2023-04-15T11:46:15.424Z,68.8831
2023-04-15T11:47:23.335Z,68.5282
2023-04-15T11:48:31.464Z,68.0962
2023-04-15T11:49:39.579Z,68.0584
2023-04-15T11:50:47.695Z,68.7920
2023-04-15T11:51:55.566Z,69.2125
2023-04-15T11:53:04.373Z,68.1282
2023-04-15T11:54:11.896Z,68.6330
2023-04-15T11:55:19.851Z,69.2976
2023-04-15T11:56:27.911Z,70.3673
2023-04-15T11:57:36.035Z,70.3801
2023-04-15T11:58:44.058Z,71.3829
2023-04-15T11:59:52.220Z,69.5857
2023-04-15T12:01:00.129Z,67.7622
2023-04-15T12:02:08.282Z,67.6069
2023-04-15T12:03:16.436Z,67.1554
2023-04-15T12:04:25.933Z,66.6233
2023-04-15T12:05:32.418Z,65.3185
2023-04-15T12:06:40.450Z,65.2296
2023-04-15T12:07:48.517Z,63.2298
2023-04-15T12:08:56.808Z,62.5814
2023-04-15T12:10:04.685Z,62.7660
2023-04-15T12:11:12.711Z,62.1075
2023-04-15T12:12:20.818Z,62.4870
2023-04-15T12:13:28.806Z,61.4272
2023-04-15T12:14:36.875Z,60.8756
2023-04-15T12:15:45.028Z,60.6608
2023-04-15T12:16:53.007Z,60.5753
2023-04-15T12:18:01.089Z,61.7604
2023-04-15T12:19:09.125Z,62.8467
2023-04-15T12:20:17.273Z,62.9673
2023-04-15T12:21:25.354Z,61.0677
2023-04-15T12:22:33.317Z,59.5688
2023-04-15T12:23:41.501Z,60.3922
2023-04-15T12:24:49.466Z,60.4010
2023-04-15T12:25:57.535Z,59.3733
2023-04-15T12:27:05.724Z,57.6906
2023-04-15T12:28:13.607Z,58.2987
2023-04-15T12:29:21.661Z,59.1167
2023-04-15T12:30:29.869Z,58.2291
2023-04-15T12:31:37.967Z,59.4360
2023-04-15T12:32:45.865Z,59.7547
2023-04-15T12:33:53.910Z,59.2941
2023-04-15T12:35:02.076Z,59.2778
2023-04-15T12:36:10.054Z,60.5784
2023-04-15T12:37:18.110Z,60.4399
2023-04-15T12:38:26.298Z,59.9849
2023-04-15T12:39:34.279Z,59.5522
2023-04-15T12:40:42.322Z,61.1016
2023-04-15T12:41:50.426Z,60.6347
2023-04-15T12:42:58.409Z,61.4115
2023-04-15T12:44:06.710Z,61.0853
2023-04-15T12:45:14.523Z,61.7579
2023-04-15T12:46:22.740Z,62.5072
2023-04-15T12:47:30.713Z,61.6689
2023-04-15T12:48:38.738Z,61.8966
2023-04-15T12:49:46.800Z,61.1013
2023-04-15T12:50:54.842Z,62.2038
2023-04-15T12:52:02.971Z,62.7861
2023-04-15T12:53:11.079Z,61.6116
2023-04-15T12:54:19.102Z,60.4493
2023-04-15T12:55:27.144Z,59.9620
2023-04-15T12:56:35.288Z,59.8739
2023-04-15T12:57:43.257Z,59.4068
2023-04-15T12:58:51.281Z,59.6365
2023-04-15T12:59:59.415Z,59.7390
2023-04-15T13:01:07.410Z,60.4240
2023-04-15T13:02:15.599Z,60.5403
2023-04-15T13:03:23.832Z,60.9517
2023-04-15T13:04:31.808Z,61.9160
2023-04-15T13:05:39.705Z,61.7658
2023-04-15T13:06:47.791Z,61.7631
2023-04-15T13:07:55.888Z,61.8835
2023-04-15T13:09:05.239Z,63.1654
2023-04-15T13:10:12.099Z,62.5298
2023-04-15T13:11:20.013Z,62.7388
2023-04-15T13:12:28.063Z,62.4380
2023-04-15T13:13:36.101Z,63.5516
2023-04-15T13:14:44.149Z,64.2233
2023-04-15T13:15:52.143Z,63.0241
2023-04-15T13:17:00.229Z,63.8863
2023-04-15T13:18:08.368Z,63.9500
2023-04-15T13:19:16.508Z,63.5660
2023-04-15T13:20:24.577Z,64.9276
2023-04-15T13:21:32.555Z,64.7078
2023-04-15T13:22:40.699Z,65.3964
2023-04-15T13:23:48.652Z,63.9291
2023-04-15T13:24:56.723Z,63.7494
2023-04-15T13:26:04.826Z,64.8890
2023-04-15T13:27:12.886Z,64.0608
2023-04-15T13:28:20.995Z,63.1656
2023-04-15T13:29:28.963Z,62.4535
2023-04-15T13:30:37.056Z,63.0896
2023-04-15T13:31:45.136Z,63.2024
2023-04-15T13:32:53.182Z,63.2589
2023-04-15T13:34:01.359Z,63.7798
2023-04-15T13:35:09.336Z,64.6242
2023-04-15T13:36:17.329Z,64.6892
2023-04-15T13:37:25.526Z,63.6723
2023-04-15T13:38:33.474Z,64.0744
2023-04-15T13:39:41.516Z,64.0376
2023-04-15T13:40:49.679Z,63.8642
2023-04-15T13:41:57.633Z,63.3781
2023-04-15T13:43:05.800Z,65.4597